sensor_id;sensor_type;location;lat;lon;timestamp;pressure;altitude;pressure_sealevel;temperature;humidity
51261;BME280;61705;46.228;24.812;2023-07-16T00:02:24;97699.06;;;18.10;83.66
51261;BME280;61705;46.228;24.812;2023-07-16T00:04:50;97700.28;;;18.17;83.44
51261;BME280;61705;46.228;24.812;2023-07-16T00:07:17;97697.16;;;19.26;78.99
51261;BME280;61705;46.228;24.812;2023-07-16T00:09:47;97696.88;;;19.52;77.02
51261;BME280;61705;46.228;24.812;2023-07-16T00:12:13;97699.19;;;19.56;76.35
51261;BME280;61705;46.228;24.812;2023-07-16T00:14:40;97695.66;;;19.67;76.03
51261;BME280;61705;46.228;24.812;2023-07-16T00:17:06;97698.91;;;19.82;75.10
51261;BME280;61705;46.228;24.812;2023-07-16T00:19:33;97698.41;;;19.88;74.84
51261;BME280;61705;46.228;24.812;2023-07-16T00:22:00;97696.03;;;19.74;75.13
51261;BME280;61705;46.228;24.812;2023-07-16T00:24:26;97692.59;;;19.83;74.59
51261;BME280;61705;46.228;24.812;2023-07-16T00:26:53;97686.09;;;19.85;74.05
51261;BME280;61705;46.228;24.812;2023-07-16T00:29:19;97692.66;;;19.93;73.66
51261;BME280;61705;46.228;24.812;2023-07-16T00:31:46;97689.00;;;19.94;73.12
51261;BME280;61705;46.228;24.812;2023-07-16T00:34:12;97690.22;;;19.89;73.33
51261;BME280;61705;46.228;24.812;2023-07-16T00:36:39;97685.50;;;19.82;73.34
51261;BME280;61705;46.228;24.812;2023-07-16T00:39:06;97679.53;;;19.78;73.67
51261;BME280;61705;46.228;24.812;2023-07-16T00:41:32;97687.22;;;19.72;73.83
51261;BME280;61705;46.228;24.812;2023-07-16T00:43:59;97689.56;;;19.65;73.72
51261;BME280;61705;46.228;24.812;2023-07-16T00:46:25;97684.81;;;19.69;73.72
51261;BME280;61705;46.228;24.812;2023-07-16T00:48:52;97676.66;;;19.59;74.02
51261;BME280;61705;46.228;24.812;2023-07-16T00:51:19;97682.28;;;19.45;74.79
51261;BME280;61705;46.228;24.812;2023-07-16T00:53:48;97677.91;;;19.21;75.60
51261;BME280;61705;46.228;24.812;2023-07-16T00:56:16;97673.31;;;19.23;75.69
51261;BME280;61705;46.228;24.812;2023-07-16T00:58:43;97676.34;;;18.16;79.92
51261;BME280;61705;46.228;24.812;2023-07-16T01:01:12;97684.72;;;17.63;82.41
51261;BME280;61705;46.228;24.812;2023-07-16T01:03:39;97674.88;;;17.64;83.39
51261;BME280;61705;46.228;24.812;2023-07-16T01:08:39;97675.28;;;17.70;82.54
51261;BME280;61705;46.228;24.812;2023-07-16T01:11:07;97678.88;;;17.58;83.09
51261;BME280;61705;46.228;24.812;2023-07-16T01:13:35;97682.22;;;17.49;83.32
51261;BME280;61705;46.228;24.812;2023-07-16T01:16:02;97684.88;;;17.49;83.30
51261;BME280;61705;46.228;24.812;2023-07-16T01:18:29;97679.19;;;17.53;83.18
51261;BME280;61705;46.228;24.812;2023-07-16T01:20:56;97672.50;;;17.72;82.30
51261;BME280;61705;46.228;24.812;2023-07-16T01:23:35;97686.53;;;17.63;82.90
51261;BME280;61705;46.228;24.812;2023-07-16T01:26:10;97683.38;;;17.58;83.49
51261;BME280;61705;46.228;24.812;2023-07-16T01:31:34;97682.13;;;17.74;82.36
51261;BME280;61705;46.228;24.812;2023-07-16T01:34:03;97684.63;;;-97.75;82.67
51261;BME280;61705;46.228;24.812;2023-07-16T01:36:33;97674.63;;;17.43;83.96
51261;BME280;61705;46.228;24.812;2023-07-16T01:39:01;97683.19;;;17.48;83.94
51261;BME280;61705;46.228;24.812;2023-07-16T01:41:28;97680.16;;;17.52;83.79
51261;BME280;61705;46.228;24.812;2023-07-16T01:43:56;97673.13;;;17.51;83.64
51261;BME280;61705;46.228;24.812;2023-07-16T01:46:22;97676.13;;;17.47;83.99
51261;BME280;61705;46.228;24.812;2023-07-16T01:48:49;97672.81;;;17.43;84.20
51261;BME280;61705;46.228;24.812;2023-07-16T01:51:16;97680.56;;;17.35;84.55
51261;BME280;61705;46.228;24.812;2023-07-16T01:53:43;97671.91;;;17.32;84.90
51261;BME280;61705;46.228;24.812;2023-07-16T01:56:09;97672.13;;;17.28;84.67
51261;BME280;61705;46.228;24.812;2023-07-16T01:58:36;97670.88;;;17.21;85.15
51261;BME280;61705;46.228;24.812;2023-07-16T02:01:03;97669.16;;;17.20;85.00
51261;BME280;61705;46.228;24.812;2023-07-16T02:03:29;97668.41;;;17.18;85.37
51261;BME280;61705;46.228;24.812;2023-07-16T02:05:57;97667.44;;;17.19;84.78
51261;BME280;61705;46.228;24.812;2023-07-16T02:08:23;97671.91;;;17.32;84.49
51261;BME280;61705;46.228;24.812;2023-07-16T02:10:50;97672.13;;;17.28;84.32
51261;BME280;61705;46.228;24.812;2023-07-16T02:13:17;97667.81;;;17.29;83.96
51261;BME280;61705;46.228;24.812;2023-07-16T02:15:44;97663.94;;;17.19;84.65
51261;BME280;61705;46.228;24.812;2023-07-16T02:18:10;97663.94;;;17.19;84.65
51261;BME280;61705;46.228;24.812;2023-07-16T02:20:37;97669.13;;;16.96;85.15
51261;BME280;61705;46.228;24.812;2023-07-16T02:23:04;97663.47;;;16.88;85.32
51261;BME280;61705;46.228;24.812;2023-07-16T02:25:32;97671.69;;;16.85;85.56
51261;BME280;61705;46.228;24.812;2023-07-16T02:27:58;97670.53;;;16.76;85.86
51261;BME280;61705;46.228;24.812;2023-07-16T02:30:25;97674.78;;;16.66;86.20
51261;BME280;61705;46.228;24.812;2023-07-16T02:32:52;97678.19;;;16.81;85.37
51261;BME280;61705;46.228;24.812;2023-07-16T02:35:19;97682.69;;;16.80;85.90
51261;BME280;61705;46.228;24.812;2023-07-16T02:37:46;97684.81;;;16.88;85.39
51261;BME280;61705;46.228;24.812;2023-07-16T02:40:12;97683.25;;;16.86;85.17
51261;BME280;61705;46.228;24.812;2023-07-16T02:42:39;97679.94;;;16.82;85.15
51261;BME280;61705;46.228;24.812;2023-07-16T02:45:06;97688.31;;;17.01;84.69
51261;BME280;61705;46.228;24.812;2023-07-16T02:47:33;97688.75;;;17.08;84.08
51261;BME280;61705;46.228;24.812;2023-07-16T02:50:00;97685.63;;;17.14;83.55
51261;BME280;61705;46.228;24.812;2023-07-16T02:52:26;97685.63;;;17.14;83.55
51261;BME280;61705;46.228;24.812;2023-07-16T02:54:53;97695.91;;;16.95;84.41
51261;BME280;61705;46.228;24.812;2023-07-16T02:57:21;97695.28;;;16.91;100.00
51261;BME280;61705;46.228;24.812;2023-07-16T02:59:48;97690.06;;;16.90;84.86
51261;BME280;61705;46.228;24.812;2023-07-16T03:02:15;97691.63;;;17.05;84.17
51261;BME280;61705;46.228;24.812;2023-07-16T03:04:42;97691.06;;;17.13;83.61
51261;BME280;61705;46.228;24.812;2023-07-16T03:07:09;97691.41;;;17.08;83.59
51261;BME280;61705;46.228;24.812;2023-07-16T03:09:35;97692.44;;;17.18;83.68
51261;BME280;61705;46.228;24.812;2023-07-16T03:12:02;97692.47;;;17.05;83.78
51261;BME280;61705;46.228;24.812;2023-07-16T03:14:29;97690.56;;;17.08;83.95
51261;BME280;61705;46.228;24.812;2023-07-16T03:16:56;97695.69;;;17.11;83.91
51261;BME280;61705;46.228;24.812;2023-07-16T03:19:23;97694.28;;;17.05;83.93
51261;BME280;61705;46.228;24.812;2023-07-16T03:21:49;97696.13;;;17.04;83.73
51261;BME280;61705;46.228;24.812;2023-07-16T03:24:16;97703.97;;;17.19;83.28
51261;BME280;61705;46.228;24.812;2023-07-16T03:26:43;97703.34;;;17.15;83.24
51261;BME280;61705;46.228;24.812;2023-07-16T03:29:10;97708.91;;;17.12;83.43
51261;BME280;61705;46.228;24.812;2023-07-16T03:31:36;97713.31;;;17.13;83.39
51261;BME280;61705;46.228;24.812;2023-07-16T03:34:03;97709.22;;;17.20;83.28
51261;BME280;61705;46.228;24.812;2023-07-16T03:36:30;97708.28;;;17.09;83.84
51261;BME280;61705;46.228;24.812;2023-07-16T03:38:56;97717.03;;;17.11;84.13
51261;BME280;61705;46.228;24.812;2023-07-16T03:41:23;97720.97;;;17.18;83.95
51261;BME280;61705;46.228;24.812;2023-07-16T03:43:50;97716.28;;;17.21;83.63
51261;BME280;61705;46.228;24.812;2023-07-16T03:46:16;97723.31;;;17.22;83.61
51261;BME280;61705;46.228;24.812;2023-07-16T03:48:44;97725.03;;;17.23;83.28
51261;BME280;61705;46.228;24.812;2023-07-16T03:51:11;97723.50;;;17.32;83.09
51261;BME280;61705;46.228;24.812;2023-07-16T03:53:38;97722.53;;;17.33;83.25
51261;BME280;61705;46.228;24.812;2023-07-16T03:56:05;97723.91;;;17.39;83.10
51261;BME280;61705;46.228;24.812;2023-07-16T03:58:31;97723.56;;;17.43;82.78
51261;BME280;61705;46.228;24.812;2023-07-16T04:00:58;97714.50;;;17.46;82.46
51261;BME280;61705;46.228;24.812;2023-07-16T04:03:25;97723.25;;;17.48;82.59
51261;BME280;61705;46.228;24.812;2023-07-16T04:05:51;97722.41;;;17.47;82.58
51261;BME280;61705;46.228;24.812;2023-07-16T04:08:18;57215.63;;;-144.75;100.00
51261;BME280;61705;46.228;24.812;2023-07-16T04:10:45;97722.41;;;17.47;82.58
51261;BME280;61705;46.228;24.812;2023-07-16T04:13:12;97726.75;;;17.61;82.26
51261;BME280;61705;46.228;24.812;2023-07-16T04:15:38;97730.91;;;17.65;82.22
51261;BME280;61705;46.228;24.812;2023-07-16T04:18:05;97722.00;;;17.77;82.16
51261;BME280;61705;46.228;24.812;2023-07-16T04:20:32;97721.25;;;17.75;82.73
51261;BME280;61705;46.228;24.812;2023-07-16T04:23:00;97724.88;;;17.74;82.72
51261;BME280;61705;46.228;24.812;2023-07-16T04:25:27;97717.63;;;17.64;83.37
51261;BME280;61705;46.228;24.812;2023-07-16T04:27:53;97724.34;;;17.82;82.48
51261;BME280;61705;46.228;24.812;2023-07-16T04:30:20;97714.31;;;17.97;82.40
51261;BME280;61705;46.228;24.812;2023-07-16T04:32:47;97712.16;;;18.02;81.95
51261;BME280;61705;46.228;24.812;2023-07-16T04:35:14;97715.91;;;17.99;82.17
51261;BME280;61705;46.228;24.812;2023-07-16T04:37:41;97714.53;;;17.94;82.63
51261;BME280;61705;46.228;24.812;2023-07-16T04:40:08;97713.88;;;18.03;82.37
51261;BME280;61705;46.228;24.812;2023-07-16T04:42:35;97714.75;;;18.15;82.24
51261;BME280;61705;46.228;24.812;2023-07-16T04:45:02;97714.06;;;18.24;81.70
51261;BME280;61705;46.228;24.812;2023-07-16T04:47:29;97710.31;;;18.27;82.04
51261;BME280;61705;46.228;24.812;2023-07-16T04:49:58;97711.91;;;18.29;81.86
51261;BME280;61705;46.228;24.812;2023-07-16T04:52:25;97719.56;;;18.34;81.70
51261;BME280;61705;46.228;24.812;2023-07-16T04:54:52;97713.16;;;18.47;81.81
51261;BME280;61705;46.228;24.812;2023-07-16T04:57:19;97711.47;;;18.69;80.72
51261;BME280;61705;46.228;24.812;2023-07-16T04:59:49;97714.16;;;18.69;80.24
51261;BME280;61705;46.228;24.812;2023-07-16T05:02:15;97720.53;;;18.79;79.61
51261;BME280;61705;46.228;24.812;2023-07-16T05:04:44;97708.81;;;18.69;78.92
51261;BME280;61705;46.228;24.812;2023-07-16T05:07:14;97716.25;;;18.77;78.80
51261;BME280;61705;46.228;24.812;2023-07-16T05:09:42;97714.47;;;18.88;78.22
51261;BME280;61705;46.228;24.812;2023-07-16T05:12:09;97711.03;;;18.86;78.32
51261;BME280;61705;46.228;24.812;2023-07-16T05:14:44;97717.28;;;19.09;77.51
51261;BME280;61705;46.228;24.812;2023-07-16T05:17:12;97718.50;;;19.05;77.35
51261;BME280;61705;46.228;24.812;2023-07-16T05:19:39;97715.19;;;19.24;76.99
51261;BME280;61705;46.228;24.812;2023-07-16T05:22:08;97718.50;;;19.16;76.83
51261;BME280;61705;46.228;24.812;2023-07-16T05:24:34;97720.91;;;19.31;76.35
51261;BME280;61705;46.228;24.812;2023-07-16T05:27:01;97716.03;;;19.47;76.03
51261;BME280;61705;46.228;24.812;2023-07-16T05:29:28;97719.19;;;19.63;75.57
51261;BME280;61705;46.228;24.812;2023-07-16T05:31:54;97723.94;;;19.71;75.18
51261;BME280;61705;46.228;24.812;2023-07-16T05:34:21;97722.09;;;19.83;74.85
51261;BME280;61705;46.228;24.812;2023-07-16T05:36:48;97712.50;;;20.01;74.25
51261;BME280;61705;46.228;24.812;2023-07-16T05:39:15;97715.03;;;20.14;73.80
51261;BME280;61705;46.228;24.812;2023-07-16T05:41:42;97725.09;;;20.22;73.69
51261;BME280;61705;46.228;24.812;2023-07-16T05:44:12;97729.38;;;20.24;73.35
51261;BME280;61705;46.228;24.812;2023-07-16T05:46:39;97718.28;;;20.18;73.05
51261;BME280;61705;46.228;24.812;2023-07-16T05:49:06;97729.13;;;20.27;73.05
51261;BME280;61705;46.228;24.812;2023-07-16T05:51:33;97729.91;;;20.39;72.84
51261;BME280;61705;46.228;24.812;2023-07-16T05:53:59;97722.56;;;20.41;72.67
51261;BME280;61705;46.228;24.812;2023-07-16T05:56:26;97726.25;;;20.61;72.75
51261;BME280;61705;46.228;24.812;2023-07-16T05:58:56;97731.78;;;20.59;71.52
51261;BME280;61705;46.228;24.812;2023-07-16T06:01:25;97728.91;;;20.51;72.05
51261;BME280;61705;46.228;24.812;2023-07-16T06:03:59;97723.03;;;20.46;72.58
51261;BME280;61705;46.228;24.812;2023-07-16T06:06:30;97729.41;;;20.66;71.98
51261;BME280;61705;46.228;24.812;2023-07-16T06:08:56;97727.06;;;20.73;71.29
51261;BME280;61705;46.228;24.812;2023-07-16T06:11:25;97724.81;;;20.78;71.46
51261;BME280;61705;46.228;24.812;2023-07-16T06:13:54;97725.06;;;20.96;71.66
51261;BME280;61705;46.228;24.812;2023-07-16T06:16:23;97718.50;;;21.10;70.47
51261;BME280;61705;46.228;24.812;2023-07-16T06:18:50;97718.91;;;21.15;70.46
51261;BME280;61705;46.228;24.812;2023-07-16T06:21:17;97720.50;;;21.17;70.56
51261;BME280;61705;46.228;24.812;2023-07-16T06:23:43;97726.50;;;21.30;70.57
51261;BME280;61705;46.228;24.812;2023-07-16T06:26:10;97722.66;;;21.33;70.54
51261;BME280;61705;46.228;24.812;2023-07-16T06:28:37;97718.66;;;21.48;70.25
51261;BME280;61705;46.228;24.812;2023-07-16T06:31:04;97707.66;;;21.61;70.21
51261;BME280;61705;46.228;24.812;2023-07-16T06:33:31;97711.75;;;21.65;70.13
51261;BME280;61705;46.228;24.812;2023-07-16T06:36:01;97718.03;;;21.75;70.07
51261;BME280;61705;46.228;24.812;2023-07-16T06:38:28;97719.75;;;21.96;69.14
51261;BME280;61705;46.228;24.812;2023-07-16T06:40:56;97712.38;;;21.98;69.12
51261;BME280;61705;46.228;24.812;2023-07-16T06:43:23;97714.66;;;22.03;68.80
51261;BME280;61705;46.228;24.812;2023-07-16T06:45:50;97706.34;;;22.15;68.18
51261;BME280;61705;46.228;24.812;2023-07-16T06:48:20;97707.88;;;22.18;68.29
51261;BME280;61705;46.228;24.812;2023-07-16T06:50:46;97703.34;;;22.28;68.27
51261;BME280;61705;46.228;24.812;2023-07-16T06:53:13;97707.16;;;22.45;67.84
51261;BME280;61705;46.228;24.812;2023-07-16T06:55:40;97703.63;;;22.54;67.71
51261;BME280;61705;46.228;24.812;2023-07-16T06:58:10;97698.50;;;22.61;67.44
51261;BME280;61705;46.228;24.812;2023-07-16T07:00:37;97707.59;;;22.60;67.10
51261;BME280;61705;46.228;24.812;2023-07-16T07:03:04;97703.25;;;22.77;66.71
51261;BME280;61705;46.228;24.812;2023-07-16T07:05:30;97706.50;;;22.80;66.83
51261;BME280;61705;46.228;24.812;2023-07-16T07:07:57;97710.03;;;23.00;66.21
51261;BME280;61705;46.228;24.812;2023-07-16T07:10:26;97707.22;;;23.02;66.18
51261;BME280;61705;46.228;24.812;2023-07-16T07:12:53;97703.44;;;23.22;65.63
51261;BME280;61705;46.228;24.812;2023-07-16T07:15:20;97700.56;;;23.33;65.56
51261;BME280;61705;46.228;24.812;2023-07-16T07:17:46;97703.34;;;23.41;65.96
51261;BME280;61705;46.228;24.812;2023-07-16T07:20:15;97698.66;;;23.44;65.35
51261;BME280;61705;46.228;24.812;2023-07-16T07:22:42;97703.16;;;23.53;65.10
51261;BME280;61705;46.228;24.812;2023-07-16T07:25:09;97700.97;;;23.66;64.52
51261;BME280;61705;46.228;24.812;2023-07-16T07:27:35;97694.97;;;23.72;63.78
51261;BME280;61705;46.228;24.812;2023-07-16T07:30:02;97696.63;;;23.83;63.80
51261;BME280;61705;46.228;24.812;2023-07-16T07:32:29;97695.31;;;24.05;63.75
51261;BME280;61705;46.228;24.812;2023-07-16T07:34:56;97699.63;;;23.98;64.14
51261;BME280;61705;46.228;24.812;2023-07-16T07:37:23;97696.09;;;23.97;64.37
51261;BME280;61705;46.228;24.812;2023-07-16T07:39:52;97695.16;;;24.06;64.62
51261;BME280;61705;46.228;24.812;2023-07-16T07:42:19;97698.91;;;24.13;64.76
51261;BME280;61705;46.228;24.812;2023-07-16T07:44:48;97691.16;;;24.28;64.04
51261;BME280;61705;46.228;24.812;2023-07-16T07:47:15;97691.59;;;24.24;64.27
51261;BME280;61705;46.228;24.812;2023-07-16T07:49:42;97694.38;;;24.32;64.15
51261;BME280;61705;46.228;24.812;2023-07-16T07:52:09;97688.66;;;24.53;63.62
51261;BME280;61705;46.228;24.812;2023-07-16T07:54:35;97688.63;;;24.45;63.77
51261;BME280;61705;46.228;24.812;2023-07-16T07:57:03;97691.72;;;24.58;63.89
51261;BME280;61705;46.228;24.812;2023-07-16T07:59:31;97687.25;;;24.67;63.64
51261;BME280;61705;46.228;24.812;2023-07-16T08:01:58;97696.81;;;24.79;63.50
51261;BME280;61705;46.228;24.812;2023-07-16T08:04:25;97697.03;;;24.86;63.45
51261;BME280;61705;46.228;24.812;2023-07-16T08:06:56;97695.06;;;24.96;63.78
51261;BME280;61705;46.228;24.812;2023-07-16T08:09:23;97690.91;;;25.10;62.96
51261;BME280;61705;46.228;24.812;2023-07-16T08:11:49;97695.59;;;24.99;63.56
51261;BME280;61705;46.228;24.812;2023-07-16T08:14:16;97692.06;;;25.07;63.38
51261;BME280;61705;46.228;24.812;2023-07-16T08:16:49;97703.47;;;25.19;62.87
51261;BME280;61705;46.228;24.812;2023-07-16T08:19:16;97705.88;;;25.22;63.41
51261;BME280;61705;46.228;24.812;2023-07-16T08:21:43;97701.22;;;25.40;62.87
51261;BME280;61705;46.228;24.812;2023-07-16T08:24:10;97690.41;;;25.40;63.17
51261;BME280;61705;46.228;24.812;2023-07-16T08:26:37;97699.59;;;25.56;62.76
51261;BME280;61705;46.228;24.812;2023-07-16T08:29:03;97701.06;;;25.50;62.81
51261;BME280;61705;46.228;24.812;2023-07-16T08:31:30;97706.03;;;25.63;62.60
51261;BME280;61705;46.228;24.812;2023-07-16T08:33:57;97701.84;;;25.76;62.45
51261;BME280;61705;46.228;24.812;2023-07-16T08:36:26;97698.38;;;25.92;62.30
51261;BME280;61705;46.228;24.812;2023-07-16T08:38:53;97690.94;;;26.03;61.99
51261;BME280;61705;46.228;24.812;2023-07-16T08:41:19;97704.13;;;25.89;61.78
51261;BME280;61705;46.228;24.812;2023-07-16T08:43:46;97698.22;;;26.18;61.49
51261;BME280;61705;46.228;24.812;2023-07-16T08:46:15;97691.13;;;26.17;61.57
51261;BME280;61705;46.228;24.812;2023-07-16T08:48:43;97695.22;;;26.38;61.47
51261;BME280;61705;46.228;24.812;2023-07-16T08:51:10;97691.47;;;26.39;60.85
51261;BME280;61705;46.228;24.812;2023-07-16T08:53:40;97694.91;;;26.49;60.71
51261;BME280;61705;46.228;24.812;2023-07-16T08:56:14;97690.34;;;26.50;60.84
51261;BME280;61705;46.228;24.812;2023-07-16T08:58:42;97688.81;;;26.47;60.42
51261;BME280;61705;46.228;24.812;2023-07-16T09:01:09;97682.38;;;26.64;60.66
51261;BME280;61705;46.228;24.812;2023-07-16T09:03:36;97679.44;;;26.90;59.53
51261;BME280;61705;46.228;24.812;2023-07-16T09:06:03;97669.75;;;26.96;58.16
51261;BME280;61705;46.228;24.812;2023-07-16T09:08:30;97671.16;;;26.84;58.57
51261;BME280;61705;46.228;24.812;2023-07-16T09:10:59;97675.69;;;27.00;58.64
51261;BME280;61705;46.228;24.812;2023-07-16T09:13:25;97674.81;;;27.07;58.57
51261;BME280;61705;46.228;24.812;2023-07-16T09:15:55;97679.72;;;27.20;58.09
51261;BME280;61705;46.228;24.812;2023-07-16T09:18:22;97671.34;;;27.38;57.77
51261;BME280;61705;46.228;24.812;2023-07-16T09:20:58;97671.94;;;27.17;57.14
51261;BME280;61705;46.228;24.812;2023-07-16T09:23:29;97667.13;;;27.35;56.19
51261;BME280;61705;46.228;24.812;2023-07-16T09:25:56;97667.03;;;27.52;55.85
51261;BME280;61705;46.228;24.812;2023-07-16T09:28:23;97663.28;;;27.61;55.64
51261;BME280;61705;46.228;24.812;2023-07-16T09:30:50;97661.53;;;27.68;54.29
51261;BME280;61705;46.228;24.812;2023-07-16T09:33:19;97666.69;;;27.55;55.57
51261;BME280;61705;46.228;24.812;2023-07-16T09:35:49;97660.50;;;27.77;55.18
51261;BME280;61705;46.228;24.812;2023-07-16T09:38:17;97662.31;;;27.85;55.41
51261;BME280;61705;46.228;24.812;2023-07-16T09:40:43;97660.81;;;28.05;53.67
51261;BME280;61705;46.228;24.812;2023-07-16T09:43:10;97652.31;;;28.08;53.80
51261;BME280;61705;46.228;24.812;2023-07-16T09:45:38;97658.38;;;28.33;53.74
51261;BME280;61705;46.228;24.812;2023-07-16T09:48:05;97651.81;;;28.05;53.06
51261;BME280;61705;46.228;24.812;2023-07-16T09:50:33;97654.59;;;28.20;52.35
51261;BME280;61705;46.228;24.812;2023-07-16T09:53:01;97642.16;;;28.25;51.72
51261;BME280;61705;46.228;24.812;2023-07-16T09:55:30;97652.94;;;28.33;52.43
51261;BME280;61705;46.228;24.812;2023-07-16T09:57:57;97648.97;;;28.44;51.93
51261;BME280;61705;46.228;24.812;2023-07-16T10:00:26;97643.53;;;28.44;51.75
51261;BME280;61705;46.228;24.812;2023-07-16T10:02:53;97637.13;;;28.75;51.16
51261;BME280;61705;46.228;24.812;2023-07-16T10:05:29;97630.97;;;28.96;50.67
51261;BME280;61705;46.228;24.812;2023-07-16T10:07:57;97632.72;;;28.36;50.75
51261;BME280;61705;46.228;24.812;2023-07-16T10:10:37;97638.75;;;28.84;50.56
51261;BME280;61705;46.228;24.812;2023-07-16T10:13:06;97639.44;;;29.01;49.79
51261;BME280;61705;46.228;24.812;2023-07-16T10:15:32;97637.34;;;29.33;49.27
51261;BME280;61705;46.228;24.812;2023-07-16T10:17:59;97632.50;;;29.13;49.32
51261;BME280;61705;46.228;24.812;2023-07-16T10:20:33;97629.38;;;28.87;49.64
51261;BME280;61705;46.228;24.812;2023-07-16T10:23:12;97625.56;;;28.58;50.75
51261;BME280;61705;46.228;24.812;2023-07-16T10:25:39;97623.16;;;28.48;50.83
51261;BME280;61705;46.228;24.812;2023-07-16T10:28:06;97626.38;;;28.96;50.19
51261;BME280;61705;46.228;24.812;2023-07-16T10:30:33;97627.25;;;29.12;49.21
51261;BME280;61705;46.228;24.812;2023-07-16T10:33:10;97625.91;;;29.37;48.16
51261;BME280;61705;46.228;24.812;2023-07-16T10:35:40;97626.22;;;29.79;46.84
51261;BME280;61705;46.228;24.812;2023-07-16T10:38:07;97621.09;;;29.90;47.16
51261;BME280;61705;46.228;24.812;2023-07-16T10:40:33;97626.56;;;29.90;46.97
51261;BME280;61705;46.228;24.812;2023-07-16T10:43:05;97620.72;;;29.93;46.40
51261;BME280;61705;46.228;24.812;2023-07-16T10:45:32;97612.09;;;29.90;45.70
51261;BME280;61705;46.228;24.812;2023-07-16T10:48:02;97607.94;;;29.94;45.71
51261;BME280;61705;46.228;24.812;2023-07-16T10:50:31;97608.00;;;30.01;44.01
51261;BME280;61705;46.228;24.812;2023-07-16T10:52:58;97605.72;;;30.19;43.57
51261;BME280;61705;46.228;24.812;2023-07-16T10:55:28;97610.34;;;30.25;43.60
51261;BME280;61705;46.228;24.812;2023-07-16T10:57:55;97604.28;;;30.51;43.05
51261;BME280;61705;46.228;24.812;2023-07-16T11:00:23;97606.75;;;30.46;42.43
51261;BME280;61705;46.228;24.812;2023-07-16T11:02:50;97609.53;;;30.53;43.00
51261;BME280;61705;46.228;24.812;2023-07-16T11:05:18;97606.72;;;30.67;42.01
51261;BME280;61705;46.228;24.812;2023-07-16T11:07:46;97608.09;;;30.78;40.60
51261;BME280;61705;46.228;24.812;2023-07-16T11:10:20;97604.44;;;30.71;41.41
51261;BME280;61705;46.228;24.812;2023-07-16T11:12:51;97595.28;;;30.79;41.25
51261;BME280;61705;46.228;24.812;2023-07-16T11:15:18;97603.22;;;31.08;40.81
51261;BME280;61705;46.228;24.812;2023-07-16T11:17:48;97591.94;;;30.83;41.16
51261;BME280;61705;46.228;24.812;2023-07-16T11:20:15;97594.53;;;30.70;41.31
51261;BME280;61705;46.228;24.812;2023-07-16T11:22:42;97597.03;;;30.65;40.69
51261;BME280;61705;46.228;24.812;2023-07-16T11:25:12;97586.69;;;30.82;40.38
51261;BME280;61705;46.228;24.812;2023-07-16T11:27:42;97593.38;;;30.79;40.41
51261;BME280;61705;46.228;24.812;2023-07-16T11:30:09;97589.19;;;30.83;40.60
51261;BME280;61705;46.228;24.812;2023-07-16T11:32:45;97592.25;;;30.67;40.63
51261;BME280;61705;46.228;24.812;2023-07-16T11:35:17;97588.22;;;30.91;40.98
51261;BME280;61705;46.228;24.812;2023-07-16T11:37:45;97585.59;;;31.17;40.05
51261;BME280;61705;46.228;24.812;2023-07-16T11:40:16;97572.97;;;31.10;38.83
51261;BME280;61705;46.228;24.812;2023-07-16T11:42:44;97577.66;;;31.23;38.86
51261;BME280;61705;46.228;24.812;2023-07-16T11:45:22;97576.69;;;31.37;37.59
51261;BME280;61705;46.228;24.812;2023-07-16T11:47:53;97581.44;;;31.70;37.81
51261;BME280;61705;46.228;24.812;2023-07-16T11:50:20;97575.56;;;31.73;37.10
51261;BME280;61705;46.228;24.812;2023-07-16T11:52:54;97584.25;;;31.96;36.49
51261;BME280;61705;46.228;24.812;2023-07-16T11:55:22;97578.81;;;32.23;37.76
51261;BME280;61705;46.228;24.812;2023-07-16T11:57:48;97576.25;;;32.01;37.86
51261;BME280;61705;46.228;24.812;2023-07-16T12:00:15;97575.84;;;31.91;36.99
51261;BME280;61705;46.228;24.812;2023-07-16T12:02:43;97571.75;;;31.67;37.69
51261;BME280;61705;46.228;24.812;2023-07-16T12:05:18;97580.78;;;31.61;37.29
51261;BME280;61705;46.228;24.812;2023-07-16T12:07:44;97577.03;;;31.75;37.11
51261;BME280;61705;46.228;24.812;2023-07-16T12:10:11;97581.00;;;31.79;36.78
51261;BME280;61705;46.228;24.812;2023-07-16T12:12:38;97582.50;;;31.82;37.29
51261;BME280;61705;46.228;24.812;2023-07-16T12:15:05;97577.03;;;31.82;37.92
51261;BME280;61705;46.228;24.812;2023-07-16T12:17:32;97576.84;;;31.83;37.73
51261;BME280;61705;46.228;24.812;2023-07-16T12:19:59;97579.81;;;31.95;37.76
51261;BME280;61705;46.228;24.812;2023-07-16T12:22:26;97580.28;;;32.19;37.07
51261;BME280;61705;46.228;24.812;2023-07-16T12:24:56;97571.66;;;32.35;36.52
51261;BME280;61705;46.228;24.812;2023-07-16T12:27:23;97576.28;;;32.68;36.24
51261;BME280;61705;46.228;24.812;2023-07-16T12:29:50;97579.38;;;33.05;35.98
51261;BME280;61705;46.228;24.812;2023-07-16T12:32:18;97579.59;;;33.10;36.00
51261;BME280;61705;46.228;24.812;2023-07-16T12:34:46;97573.31;;;32.76;35.77
51261;BME280;61705;46.228;24.812;2023-07-16T12:37:13;97575.31;;;33.27;35.27
51261;BME280;61705;46.228;24.812;2023-07-16T12:39:39;97574.38;;;33.53;34.17
51261;BME280;61705;46.228;24.812;2023-07-16T12:42:06;97572.31;;;33.80;33.87
51261;BME280;61705;46.228;24.812;2023-07-16T12:44:33;97568.81;;;33.66;35.51
51261;BME280;61705;46.228;24.812;2023-07-16T12:46:59;97576.00;;;33.61;36.03
51261;BME280;61705;46.228;24.812;2023-07-16T12:49:26;97575.59;;;33.57;35.82
51261;BME280;61705;46.228;24.812;2023-07-16T12:51:53;97563.75;;;34.02;34.82
51261;BME280;61705;46.228;24.812;2023-07-16T12:54:20;97555.00;;;33.86;34.60
51261;BME280;61705;46.228;24.812;2023-07-16T12:56:46;97565.13;;;33.86;34.34
51261;BME280;61705;46.228;24.812;2023-07-16T12:59:13;97556.78;;;34.06;34.03